createdAt,value
2023-06-30T00:00:46.830Z,22.10
2023-06-30T00:03:16.869Z,22.00
2023-06-30T00:05:47.371Z,22.00
2023-06-30T00:08:16.956Z,21.90
2023-06-30T00:10:45.221Z,22.00
2023-06-30T00:13:13.447Z,22.00
2023-06-30T00:15:42.216Z,22.00
2023-06-30T00:18:10.756Z,22.10
2023-06-30T00:20:39.250Z,22.10
2023-06-30T00:23:10.355Z,22.00
2023-06-30T00:25:39.366Z,21.90
2023-06-30T00:28:08.188Z,21.70
2023-06-30T00:30:36.863Z,21.70
2023-06-30T00:33:07.147Z,21.60
2023-06-30T00:35:35.415Z,21.60
2023-06-30T00:38:03.620Z,21.60
2023-06-30T00:40:32.225Z,21.50
2023-06-30T00:43:02.358Z,21.50
2023-06-30T00:45:31.434Z,21.50
2023-06-30T00:48:00.746Z,21.50
2023-06-30T00:50:29.071Z,21.50
2023-06-30T00:52:58.213Z,21.40
2023-06-30T00:55:30.111Z,21.30
2023-06-30T00:57:58.722Z,21.30
2023-06-30T01:00:27.116Z,21.30
2023-06-30T01:03:08.218Z,21.30
2023-06-30T01:06:17.145Z,21.30
2023-06-30T01:09:17.858Z,21.30
2023-06-30T01:11:47.778Z,21.30
2023-06-30T01:14:18.473Z,21.30
2023-06-30T01:16:47.973Z,21.40
2023-06-30T01:19:36.788Z,21.40
2023-06-30T01:22:18.799Z,21.30
2023-06-30T01:24:50.904Z,21.30
2023-06-30T01:27:21.491Z,21.30
2023-06-30T01:29:52.793Z,21.20
2023-06-30T01:32:22.822Z,21.10
2023-06-30T01:34:52.028Z,21.00
2023-06-30T01:37:21.208Z,20.80
2023-06-30T01:39:51.359Z,20.90
2023-06-30T01:42:21.373Z,20.80
2023-06-30T01:44:51.569Z,20.60
2023-06-30T01:47:20.599Z,20.50
2023-06-30T01:49:48.846Z,20.40
2023-06-30T01:52:17.469Z,20.40
2023-06-30T01:54:46.317Z,20.50
2023-06-30T01:57:15.490Z,20.50
2023-06-30T01:59:44.562Z,20.50
2023-06-30T02:02:13.081Z,20.50
2023-06-30T02:04:41.452Z,20.40
2023-06-30T02:07:10.733Z,20.40
2023-06-30T02:09:47.764Z,20.30
2023-06-30T02:12:17.648Z,20.30
2023-06-30T02:14:47.076Z,20.30
2023-06-30T02:17:15.520Z,20.20
2023-06-30T02:19:43.975Z,20.10
2023-06-30T02:22:12.087Z,20.10
2023-06-30T02:24:40.572Z,20.00
2023-06-30T02:27:10.329Z,19.90
2023-06-30T02:29:38.692Z,20.00
2023-06-30T02:32:08.885Z,20.00
2023-06-30T02:34:37.657Z,19.90
2023-06-30T02:37:08.161Z,20.00
2023-06-30T02:39:36.794Z,19.90
2023-06-30T02:42:06.449Z,19.90
2023-06-30T02:44:35.124Z,19.90
2023-06-30T02:47:05.455Z,19.80
2023-06-30T02:49:34.479Z,19.70
2023-06-30T02:52:02.767Z,19.70
2023-06-30T02:54:35.557Z,19.70
2023-06-30T02:57:04.439Z,19.70
2023-06-30T02:59:34.159Z,19.70
2023-06-30T03:02:03.907Z,19.70
2023-06-30T03:04:33.884Z,19.60
2023-06-30T03:07:02.719Z,19.50
2023-06-30T03:09:31.556Z,19.50
2023-06-30T03:12:00.508Z,19.50
2023-06-30T03:14:28.708Z,19.50
2023-06-30T03:16:56.900Z,19.50
2023-06-30T03:19:25.277Z,19.50
2023-06-30T03:21:54.316Z,19.60
2023-06-30T03:24:22.894Z,19.60
2023-06-30T03:26:51.153Z,19.70
2023-06-30T03:29:26.203Z,19.70
2023-06-30T03:31:55.673Z,19.70
2023-06-30T03:34:24.434Z,19.60
2023-06-30T03:36:52.700Z,19.50
2023-06-30T03:39:23.117Z,19.40
2023-06-30T03:41:52.000Z,19.30
2023-06-30T03:44:21.001Z,19.30
2023-06-30T03:46:49.660Z,19.30
2023-06-30T03:49:18.303Z,19.40
2023-06-30T03:51:47.033Z,19.30
2023-06-30T03:54:17.580Z,19.30
2023-06-30T03:56:48.419Z,19.30
2023-06-30T03:59:18.440Z,19.30
2023-06-30T04:01:46.707Z,19.30
2023-06-30T04:04:15.077Z,19.30
2023-06-30T04:06:45.532Z,19.40
2023-06-30T04:09:13.749Z,19.40
2023-06-30T04:11:42.325Z,19.50
2023-06-30T04:14:10.376Z,19.40
2023-06-30T04:16:38.620Z,19.40
2023-06-30T04:19:07.324Z,19.50
2023-06-30T04:21:36.197Z,19.60
2023-06-30T04:24:05.128Z,19.70
2023-06-30T04:26:34.381Z,19.80
2023-06-30T04:29:03.589Z,20.10
2023-06-30T04:31:32.699Z,20.20
2023-06-30T04:34:01.518Z,20.50
2023-06-30T04:36:30.727Z,20.70
2023-06-30T04:38:59.178Z,20.80
2023-06-30T04:41:28.141Z,20.80
2023-06-30T04:43:56.556Z,20.90
2023-06-30T04:46:26.573Z,21.10
2023-06-30T04:48:57.229Z,21.00
2023-06-30T04:51:26.117Z,21.10
2023-06-30T04:53:54.853Z,21.10
2023-06-30T04:56:23.398Z,20.90
2023-06-30T04:58:52.415Z,21.10
2023-06-30T05:01:21.566Z,21.30
2023-06-30T05:03:50.379Z,20.60
2023-06-30T05:06:19.533Z,20.80
2023-06-30T05:08:48.342Z,21.30
2023-06-30T05:11:17.206Z,21.80
2023-06-30T05:13:46.098Z,21.80
2023-06-30T05:16:15.516Z,22.10
2023-06-30T05:18:43.700Z,21.70
2023-06-30T05:21:12.143Z,21.40
2023-06-30T05:23:41.241Z,21.90
2023-06-30T05:26:11.706Z,22.40
2023-06-30T05:28:43.182Z,22.50
2023-06-30T05:31:16.501Z,22.80
2023-06-30T05:33:44.696Z,22.90
2023-06-30T05:36:13.385Z,22.50
2023-06-30T05:38:42.602Z,22.60
2023-06-30T05:41:11.354Z,22.90
2023-06-30T05:43:41.837Z,22.80
2023-06-30T05:46:10.220Z,23.10
2023-06-30T05:48:38.380Z,23.10
2023-06-30T05:51:07.192Z,23.20
2023-06-30T05:53:35.434Z,23.10
2023-06-30T05:56:03.782Z,23.30
2023-06-30T05:58:32.731Z,23.60
2023-06-30T06:01:01.223Z,23.80
2023-06-30T06:03:32.148Z,23.90
2023-06-30T06:06:01.371Z,24.20
2023-06-30T06:08:30.453Z,24.50
2023-06-30T06:10:59.014Z,24.60
2023-06-30T06:13:35.443Z,24.90
2023-06-30T06:16:05.208Z,24.60
2023-06-30T06:18:34.717Z,24.30
2023-06-30T06:21:05.177Z,24.50
2023-06-30T06:23:34.336Z,24.70
2023-06-30T06:26:03.580Z,25.00
2023-06-30T06:28:32.538Z,25.20
2023-06-30T06:31:01.260Z,25.40
2023-06-30T06:33:31.813Z,25.50
2023-06-30T06:36:00.690Z,25.50
2023-06-30T06:38:28.804Z,25.10
2023-06-30T06:40:57.373Z,25.10
2023-06-30T06:43:27.716Z,25.50
2023-06-30T06:45:56.287Z,25.50
2023-06-30T06:48:26.257Z,25.20
2023-06-30T06:50:58.942Z,25.10
2023-06-30T06:53:31.417Z,25.60
2023-06-30T06:56:00.886Z,25.10
2023-06-30T06:58:31.769Z,25.30
2023-06-30T07:01:00.492Z,25.80
2023-06-30T07:03:29.399Z,25.70
2023-06-30T07:05:59.140Z,26.30
2023-06-30T07:08:29.729Z,26.80
2023-06-30T07:10:58.294Z,26.90
2023-06-30T07:13:27.050Z,26.50
2023-06-30T07:15:55.437Z,26.50
2023-06-30T07:18:24.427Z,26.50
2023-06-30T07:20:55.535Z,26.80
2023-06-30T07:23:26.962Z,26.90
2023-06-30T07:25:56.184Z,26.70
2023-06-30T07:28:25.251Z,26.90
2023-06-30T07:30:54.377Z,27.60
2023-06-30T07:33:22.482Z,27.90
2023-06-30T07:35:51.440Z,28.00
2023-06-30T07:38:20.470Z,28.10
2023-06-30T07:40:55.775Z,27.80
2023-06-30T07:43:25.814Z,28.10
2023-06-30T07:45:54.514Z,28.60
2023-06-30T07:48:23.608Z,28.50
2023-06-30T07:51:03.734Z,28.60
2023-06-30T07:53:36.813Z,28.70
2023-06-30T07:56:06.375Z,27.90
2023-06-30T07:58:35.464Z,28.30
2023-06-30T08:01:04.404Z,28.20
2023-06-30T08:03:34.675Z,28.30
2023-06-30T08:06:03.542Z,28.80
2023-06-30T08:08:33.435Z,28.90
2023-06-30T08:11:02.662Z,28.70
2023-06-30T08:13:30.912Z,28.50
2023-06-30T08:15:59.611Z,28.70
2023-06-30T08:18:34.087Z,28.90
2023-06-30T08:21:04.756Z,28.60
2023-06-30T08:23:33.524Z,28.20
2023-06-30T08:26:02.124Z,28.70
2023-06-30T08:28:30.242Z,28.50
2023-06-30T08:30:58.438Z,28.20
2023-06-30T08:36:02.352Z,28.40
2023-06-30T08:38:32.076Z,28.60
2023-06-30T08:41:01.755Z,29.10
2023-06-30T08:43:31.340Z,29.40
2023-06-30T08:46:02.894Z,29.30
2023-06-30T08:48:33.219Z,29.40
2023-06-30T08:51:03.377Z,29.30
2023-06-30T08:53:32.952Z,28.90
2023-06-30T08:56:01.946Z,28.40
2023-06-30T08:58:31.451Z,28.10
2023-06-30T09:01:00.250Z,28.60
2023-06-30T09:03:30.473Z,27.70
2023-06-30T09:06:01.470Z,27.50
2023-06-30T09:08:54.400Z,27.20
2023-06-30T09:11:26.196Z,27.90
2023-06-30T09:13:58.027Z,28.50
2023-06-30T09:16:25.982Z,28.90
2023-06-30T09:18:55.128Z,29.50
2023-06-30T09:21:24.314Z,29.40
2023-06-30T09:23:56.373Z,29.50
2023-06-30T09:26:25.721Z,29.70
2023-06-30T09:28:56.363Z,29.80
2023-06-30T09:31:35.333Z,29.70
2023-06-30T09:34:09.871Z,29.80
2023-06-30T09:36:47.176Z,30.20
2023-06-30T09:39:17.028Z,30.40
2023-06-30T09:41:47.573Z,30.80
2023-06-30T09:44:21.570Z,30.20
2023-06-30T09:46:52.102Z,29.80
2023-06-30T09:49:29.897Z,29.60
2023-06-30T09:52:01.120Z,29.60
2023-06-30T09:57:06.543Z,29.10
2023-06-30T09:59:35.729Z,28.60
2023-06-30T10:02:04.294Z,28.20
2023-06-30T10:04:32.624Z,29.00
2023-06-30T10:07:03.398Z,29.60
2023-06-30T10:09:34.298Z,29.80
2023-06-30T10:12:04.063Z,29.90
2023-06-30T10:14:33.935Z,29.50
2023-06-30T10:17:04.805Z,29.70
2023-06-30T10:19:35.694Z,29.10
2023-06-30T10:22:04.639Z,29.20
2023-06-30T10:24:39.024Z,29.40
2023-06-30T10:27:09.373Z,29.90
2023-06-30T10:29:38.205Z,29.50
2023-06-30T10:32:07.758Z,29.60
2023-06-30T10:34:37.796Z,29.20
2023-06-30T10:37:06.518Z,29.30
2023-06-30T10:39:36.147Z,28.40
2023-06-30T10:42:07.683Z,28.80
2023-06-30T10:45:02.482Z,29.20
2023-06-30T10:47:40.549Z,29.80
2023-06-30T10:50:16.149Z,30.10
2023-06-30T10:52:55.661Z,30.40
2023-06-30T10:55:28.334Z,30.30
2023-06-30T10:57:57.084Z,30.40
2023-06-30T11:00:30.809Z,29.20
2023-06-30T11:03:00.798Z,29.80
2023-06-30T11:05:36.801Z,29.40
2023-06-30T11:08:12.217Z,28.60
2023-06-30T11:10:48.184Z,28.90
2023-06-30T11:13:17.408Z,29.00
2023-06-30T11:15:53.420Z,29.10
2023-06-30T11:18:24.390Z,29.40
2023-06-30T11:21:03.620Z,29.50
2023-06-30T11:23:40.990Z,29.80
2023-06-30T11:26:16.244Z,30.20
2023-06-30T11:28:50.620Z,30.40
2023-06-30T11:31:19.691Z,30.50
2023-06-30T11:33:48.577Z,30.70
2023-06-30T11:36:18.937Z,30.50
2023-06-30T11:38:51.666Z,30.30
2023-06-30T11:41:23.639Z,30.60
2023-06-30T11:43:55.132Z,29.70
2023-06-30T11:46:24.395Z,29.70
2023-06-30T11:48:53.152Z,29.20
2023-06-30T11:51:21.402Z,28.90
2023-06-30T11:53:51.090Z,28.90
2023-06-30T11:56:21.167Z,29.30
2023-06-30T11:58:50.446Z,30.00
2023-06-30T12:01:21.340Z,29.80
2023-06-30T12:04:02.308Z,29.60
2023-06-30T12:06:31.702Z,29.60
2023-06-30T12:09:02.743Z,29.50
2023-06-30T12:11:34.507Z,30.10
2023-06-30T12:14:16.601Z,30.40
2023-06-30T12:16:53.168Z,30.50
2023-06-30T12:19:29.309Z,30.70
2023-06-30T12:22:08.524Z,30.20
2023-06-30T12:24:39.126Z,30.60
2023-06-30T12:27:09.284Z,30.90
2023-06-30T12:29:38.136Z,31.20
2023-06-30T12:32:18.375Z,30.90
2023-06-30T12:34:47.543Z,29.80
2023-06-30T12:37:17.498Z,29.90
2023-06-30T12:40:00.000Z,30.20
2023-06-30T12:42:33.803Z,29.70
2023-06-30T12:45:02.697Z,29.90
2023-06-30T12:47:34.087Z,29.60
2023-06-30T12:50:04.084Z,29.20
2023-06-30T12:52:33.124Z,29.40
2023-06-30T12:55:03.471Z,29.30
2023-06-30T12:57:34.833Z,29.40
2023-06-30T13:00:08.383Z,29.00
2023-06-30T13:02:38.230Z,28.70
2023-06-30T13:05:08.605Z,28.80
2023-06-30T13:07:37.291Z,29.00
2023-06-30T13:10:07.291Z,29.00
2023-06-30T13:12:41.059Z,28.70
2023-06-30T13:15:11.435Z,28.80
2023-06-30T13:17:39.742Z,29.00
2023-06-30T13:20:09.328Z,28.90
2023-06-30T13:22:50.742Z,28.70
2023-06-30T13:25:27.671Z,28.70
2023-06-30T13:27:56.717Z,28.10
2023-06-30T13:30:28.009Z,27.60
2023-06-30T13:32:57.173Z,27.40
2023-06-30T13:35:25.366Z,27.70
2023-06-30T13:37:54.049Z,28.10
2023-06-30T13:40:24.564Z,28.40
2023-06-30T13:42:53.380Z,28.40
2023-06-30T13:45:22.625Z,28.50
2023-06-30T13:47:51.254Z,28.70
2023-06-30T13:50:20.920Z,28.90
2023-06-30T13:52:49.467Z,29.00
2023-06-30T13:55:18.579Z,28.80
2023-06-30T13:57:48.490Z,28.90
2023-06-30T14:00:18.061Z,28.50
2023-06-30T14:02:47.493Z,28.00
2023-06-30T14:05:16.493Z,28.10
2023-06-30T14:07:45.070Z,28.40
2023-06-30T14:10:14.079Z,28.40
2023-06-30T14:12:42.795Z,28.50
2023-06-30T14:15:11.672Z,28.60
2023-06-30T14:17:40.905Z,28.60
2023-06-30T14:20:10.100Z,28.50
2023-06-30T14:22:38.340Z,28.40
2023-06-30T14:25:06.600Z,28.40
2023-06-30T14:27:35.397Z,28.50
2023-06-30T14:30:05.617Z,28.40
2023-06-30T14:32:35.345Z,28.50
2023-06-30T14:35:05.001Z,28.50
2023-06-30T14:37:33.616Z,28.60
2023-06-30T14:40:02.329Z,28.60
2023-06-30T14:42:35.166Z,28.60
2023-06-30T14:45:05.213Z,28.60
2023-06-30T14:47:35.883Z,28.60
2023-06-30T14:50:04.629Z,28.70
2023-06-30T14:52:32.983Z,28.50
2023-06-30T14:55:02.557Z,28.60
2023-06-30T14:57:33.301Z,28.50
2023-06-30T15:00:02.928Z,28.40
2023-06-30T15:02:34.633Z,28.40
2023-06-30T15:05:03.728Z,28.30
2023-06-30T15:07:36.628Z,28.20
2023-06-30T15:10:06.044Z,28.10
2023-06-30T15:12:35.508Z,28.20
2023-06-30T15:15:04.980Z,28.30
2023-06-30T15:17:35.065Z,28.40
2023-06-30T15:20:03.700Z,28.50
2023-06-30T15:22:34.276Z,28.60
2023-06-30T15:25:03.873Z,28.60
2023-06-30T15:27:36.424Z,28.40
2023-06-30T15:30:07.523Z,28.40
2023-06-30T15:32:37.299Z,28.30
2023-06-30T15:35:06.196Z,28.30
2023-06-30T15:37:34.396Z,28.30
2023-06-30T15:40:03.146Z,28.30
2023-06-30T15:42:33.560Z,28.30
2023-06-30T15:45:03.424Z,28.30
2023-06-30T15:47:34.756Z,28.20
2023-06-30T15:50:03.827Z,28.00
2023-06-30T15:52:36.794Z,27.90
2023-06-30T15:55:16.165Z,28.00
2023-06-30T15:57:45.412Z,28.10
2023-06-30T16:00:14.866Z,28.10
2023-06-30T16:02:47.074Z,28.00
2023-06-30T16:05:15.999Z,27.90
2023-06-30T16:07:44.587Z,28.00
2023-06-30T16:10:13.235Z,28.10
2023-06-30T16:12:42.024Z,28.10
2023-06-30T16:15:10.763Z,28.30
2023-06-30T16:17:39.342Z,28.30
2023-06-30T16:20:08.896Z,28.30
2023-06-30T16:22:37.909Z,28.20
2023-06-30T16:25:07.797Z,27.90
2023-06-30T16:27:36.420Z,27.60
2023-06-30T16:30:27.659Z,27.50
2023-06-30T16:32:57.638Z,27.40
2023-06-30T16:35:28.017Z,27.60
2023-06-30T16:37:58.355Z,27.60
2023-06-30T16:40:27.470Z,27.40
2023-06-30T16:42:56.213Z,27.00
2023-06-30T16:45:24.564Z,26.80
2023-06-30T16:47:53.776Z,26.50
2023-06-30T16:50:22.052Z,26.50
2023-06-30T16:52:51.138Z,26.50
2023-06-30T16:55:20.350Z,26.50
2023-06-30T16:57:49.261Z,26.40
2023-06-30T17:00:18.846Z,26.30
2023-06-30T17:02:49.362Z,26.20
2023-06-30T17:05:18.523Z,26.20
2023-06-30T17:07:47.097Z,26.10
2023-06-30T17:10:16.344Z,26.10
2023-06-30T17:12:44.807Z,26.10
2023-06-30T17:15:13.227Z,26.00
2023-06-30T17:17:41.375Z,25.90
2023-06-30T17:20:10.854Z,25.80
2023-06-30T17:22:39.877Z,25.80
2023-06-30T17:25:09.284Z,25.70
2023-06-30T17:27:38.084Z,25.70
2023-06-30T17:30:06.848Z,25.70
2023-06-30T17:32:35.851Z,25.70
2023-06-30T17:35:05.112Z,25.70
2023-06-30T17:37:34.960Z,25.60
2023-06-30T17:40:03.905Z,25.60
2023-06-30T17:42:34.661Z,25.50
2023-06-30T17:45:04.227Z,25.50
2023-06-30T17:47:35.206Z,25.50
2023-06-30T17:50:03.574Z,25.40
2023-06-30T17:52:34.885Z,25.40
2023-06-30T17:55:04.139Z,25.30
2023-06-30T17:57:33.194Z,25.20
2023-06-30T18:00:02.447Z,25.10
2023-06-30T18:02:41.616Z,25.10
2023-06-30T18:05:11.851Z,25.00
2023-06-30T18:07:40.540Z,25.00
2023-06-30T18:10:14.479Z,24.90
2023-06-30T18:12:43.590Z,24.90
2023-06-30T18:15:12.811Z,24.80
2023-06-30T18:17:41.030Z,24.80
2023-06-30T18:20:10.183Z,24.80
2023-06-30T18:22:39.049Z,24.80
2023-06-30T18:25:08.152Z,24.80
2023-06-30T18:27:36.901Z,24.80
2023-06-30T18:30:05.959Z,24.80
2023-06-30T18:32:35.696Z,24.80
2023-06-30T18:35:04.785Z,24.70
2023-06-30T18:37:35.880Z,24.60
2023-06-30T18:40:05.196Z,24.60
2023-06-30T18:42:33.458Z,24.60
2023-06-30T18:45:01.740Z,24.60
2023-06-30T18:47:33.281Z,24.60
2023-06-30T18:50:02.220Z,24.60
2023-06-30T18:52:33.004Z,24.50
2023-06-30T18:55:01.623Z,24.40
2023-06-30T18:57:34.629Z,24.40
2023-06-30T19:00:04.472Z,24.40
2023-06-30T19:02:36.932Z,24.40
2023-06-30T19:05:06.682Z,24.30
2023-06-30T19:07:35.959Z,24.20
2023-06-30T19:10:04.669Z,24.20
2023-06-30T19:12:34.088Z,24.20
2023-06-30T19:15:04.408Z,24.20
2023-06-30T19:17:34.868Z,24.20
2023-06-30T19:20:03.722Z,24.20
2023-06-30T19:22:33.158Z,24.20
2023-06-30T19:25:01.859Z,24.30
2023-06-30T19:27:32.870Z,24.30
2023-06-30T19:30:02.008Z,24.30
2023-06-30T19:32:35.062Z,24.30
2023-06-30T19:35:05.653Z,24.30
2023-06-30T19:37:34.945Z,24.40
2023-06-30T19:40:04.350Z,24.20
2023-06-30T19:42:34.040Z,24.20
2023-06-30T19:45:06.341Z,24.20
2023-06-30T19:47:36.043Z,24.20
2023-06-30T19:50:05.273Z,24.20
2023-06-30T19:52:37.083Z,24.20
2023-06-30T19:55:05.982Z,24.20
2023-06-30T19:57:34.893Z,24.10
2023-06-30T20:00:04.576Z,24.10
2023-06-30T20:02:43.639Z,24.10
2023-06-30T20:05:12.577Z,24.00
2023-06-30T20:07:41.035Z,24.00
2023-06-30T20:10:10.201Z,23.80
2023-06-30T20:12:38.771Z,23.80
2023-06-30T20:15:08.460Z,23.90
2023-06-30T20:17:36.944Z,23.80
2023-06-30T20:20:06.231Z,23.80
2023-06-30T20:22:34.972Z,23.70
2023-06-30T20:25:04.194Z,23.70
2023-06-30T20:27:34.075Z,23.70
2023-06-30T20:30:03.486Z,23.70
2023-06-30T20:32:34.193Z,23.60
2023-06-30T20:35:02.436Z,23.60
2023-06-30T20:37:33.466Z,23.60
2023-06-30T20:40:02.199Z,23.60
2023-06-30T20:42:33.815Z,23.60
2023-06-30T20:45:03.675Z,23.60
2023-06-30T20:47:36.226Z,23.60
2023-06-30T20:50:05.445Z,23.50
2023-06-30T20:52:34.122Z,23.40
2023-06-30T20:55:02.698Z,23.40
2023-06-30T20:57:32.148Z,23.30
2023-06-30T21:00:00.309Z,23.20
2023-06-30T21:02:29.565Z,23.20
2023-06-30T21:04:58.997Z,23.20
2023-06-30T21:07:28.651Z,23.20
2023-06-30T21:09:57.396Z,23.10
2023-06-30T21:12:26.415Z,23.10
2023-06-30T21:14:55.577Z,23.10
2023-06-30T21:17:24.247Z,23.00
2023-06-30T21:19:53.057Z,23.00
2023-06-30T21:22:22.067Z,23.00
2023-06-30T21:24:50.570Z,23.00
2023-06-30T21:27:19.450Z,23.00
2023-06-30T21:29:48.437Z,23.00
2023-06-30T21:32:16.629Z,23.00
2023-06-30T21:34:45.543Z,23.00
2023-06-30T21:37:14.048Z,22.90
2023-06-30T21:39:42.872Z,22.90
2023-06-30T21:42:12.094Z,22.80
2023-06-30T21:44:41.006Z,22.80
2023-06-30T21:47:09.895Z,22.70
2023-06-30T21:49:38.621Z,22.60
2023-06-30T21:52:07.025Z,22.60
2023-06-30T21:54:47.264Z,22.50
2023-06-30T21:57:17.110Z,22.40
2023-06-30T21:59:46.009Z,22.30
2023-06-30T22:02:14.648Z,22.30
2023-06-30T22:04:42.949Z,22.30
2023-06-30T22:07:11.810Z,22.40
2023-06-30T22:09:40.097Z,22.40
2023-06-30T22:12:09.007Z,22.40
2023-06-30T22:14:38.227Z,22.40
2023-06-30T22:17:07.149Z,22.40
2023-06-30T22:19:37.788Z,22.40
2023-06-30T22:22:06.700Z,22.40
2023-06-30T22:24:35.529Z,22.40
2023-06-30T22:27:04.559Z,22.30
2023-06-30T22:29:33.915Z,22.30
2023-06-30T22:32:02.459Z,22.30
2023-06-30T22:34:30.744Z,22.30
2023-06-30T22:36:58.857Z,22.30
2023-06-30T22:39:27.017Z,22.30
2023-06-30T22:41:55.901Z,22.20
2023-06-30T22:44:24.470Z,22.20
2023-06-30T22:46:53.678Z,22.20
2023-06-30T22:49:22.035Z,22.20
2023-06-30T22:51:50.852Z,22.10
2023-06-30T22:54:19.857Z,22.10
2023-06-30T22:56:48.668Z,22.10
2023-06-30T22:59:17.477Z,22.10
2023-06-30T23:01:45.870Z,22.10
2023-06-30T23:04:14.639Z,22.00
2023-06-30T23:06:43.614Z,22.00
2023-06-30T23:09:12.203Z,22.00
2023-06-30T23:11:41.706Z,22.10
2023-06-30T23:14:10.476Z,22.10
2023-06-30T23:16:39.055Z,22.10
2023-06-30T23:19:08.590Z,22.10
2023-06-30T23:21:38.485Z,22.00
2023-06-30T23:24:11.084Z,21.90
2023-06-30T23:26:41.418Z,21.90
2023-06-30T23:29:10.118Z,21.90
2023-06-30T23:31:40.347Z,21.70
2023-06-30T23:34:09.766Z,21.70
2023-06-30T23:36:38.880Z,21.70
2023-06-30T23:39:07.603Z,21.80
2023-06-30T23:41:36.078Z,21.80
2023-06-30T23:44:04.653Z,21.50
2023-06-30T23:46:33.995Z,21.80
2023-06-30T23:49:02.425Z,21.60
2023-06-30T23:51:30.731Z,21.60
2023-06-30T23:53:59.471Z,21.60
2023-06-30T23:56:27.603Z,21.40
2023-06-30T23:58:58.010Z,21.20
